Time;durP1;ratioP1;P1;durP2;ratioP2;P2;SDS_P1;SDS_P2;PMS_P1;PMS_P2;Temp;Humidity;BMP_temperature;BMP_pressure;BME280_temperature;BME280_humidity;BME280_pressure;Samples;Min_cycle;Max_cycle;Signal;HPM_P1;HPM_P2
2024/01/12 00:00:55;;;;;;;24.00;13.83;;;-1.20;88.30;;;-1.63;55.63;95012.78;5012572;28;20492;-62
2024/01/12 00:03:22;;;;;;;20.63;11.63;;;-1.20;87.80;;;-1.61;55.77;95018.75;5012416;28;20457;-63
2024/01/12 00:05:51;;;;;;;21.60;13.10;;;-1.20;88.10;;;-1.60;55.77;95016.97;5012435;28;20465;-63
2024/01/12 00:08:18;;;;;;;24.23;11.33;;;-1.20;88.50;;;-1.62;55.56;95017.06;5012488;28;20457;-61
2024/01/12 00:10:46;;;;;;;20.90;12.80;;;-1.20;87.20;;;-1.65;55.15;95009.44;5012345;28;20461;-62
2024/01/12 00:13:13;;;;;;;24.00;12.57;;;-1.20;86.90;;;-1.67;55.33;95014.66;5012202;28;20540;-62
2024/01/12 00:15:41;;;;;;;24.17;13.47;;;-1.20;87.20;;;-1.67;55.67;95014.66;5012279;28;20482;-62
2024/01/12 00:18:08;;;;;;;27.27;15.53;;;-1.30;87.60;;;-1.69;56.00;95013.91;5012373;28;20501;-64
2024/01/12 00:20:36;;;;;;;24.20;13.60;;;-1.30;88.50;;;-1.68;55.89;95012.16;5012401;28;20853;-61
2024/01/12 00:23:05;;;;;;;26.73;13.20;;;-1.30;88.60;;;-1.68;56.02;95019.88;5011907;28;20513;-61
2024/01/12 00:25:32;;;;;;;30.60;13.93;;;-1.30;88.30;;;-1.68;56.16;95019.88;5011731;28;20478;-60
2024/01/12 00:27:59;;;;;;;21.20;13.47;;;-1.30;88.70;;;-1.68;56.17;95027.63;5011001;28;20457;-62
2024/01/12 00:30:27;;;;;;;20.73;12.60;;;-1.30;88.90;;;-1.66;56.00;95025.81;5011734;28;20498;-61
2024/01/12 00:32:54;;;;;;;24.43;13.43;;;-1.20;88.60;;;-1.65;55.66;95030.91;5011974;28;20871;-63
2024/01/12 00:35:21;;;;;;;25.00;14.43;;;-1.30;88.00;;;-1.66;55.65;95028.38;5011652;28;20524;-62
2024/01/12 00:37:49;;;;;;;21.27;13.10;;;-1.20;87.90;;;-1.66;56.12;95025.81;5011636;28;21187;-60
2024/01/12 00:40:18;;;;;;;24.23;14.13;;;-1.30;88.30;;;-1.67;55.63;95016.41;5011705;28;20635;-62
2024/01/12 00:42:46;;;;;;;26.77;13.00;;;-1.20;88.50;;;-1.60;56.00;95022.16;5011946;28;20471;-62
2024/01/12 00:45:14;;;;;;;25.80;13.30;;;-1.20;88.70;;;-1.57;55.83;95020.28;5011924;28;20830;-62
2024/01/12 00:47:41;;;;;;;27.60;13.17;;;-1.20;88.40;;;-1.57;55.79;95022.84;5011609;28;20875;-62
2024/01/12 00:50:09;;;;;;;24.00;13.33;;;-1.10;88.40;;;-1.54;55.57;95021.91;5011321;28;20856;-63
2024/01/12 00:52:37;;;;;;;26.93;13.20;;;-1.10;88.30;;;-1.54;55.54;95017.56;5011691;28;20789;-62
2024/01/12 00:55:05;;;;;;;20.60;11.97;;;-1.10;87.90;;;-1.53;55.75;95019.25;5011687;28;20473;-62
2024/01/12 00:57:34;;;;;;;25.73;13.27;;;-1.10;88.20;;;-1.51;55.40;95007.13;5011926;28;20505;-62
2024/01/12 01:00:01;;;;;;;23.90;13.37;;;-1.10;87.60;;;-1.53;55.36;95008.09;5011649;28;20474;-61
2024/01/12 01:02:29;;;;;;;23.93;13.50;;;-1.10;87.60;;;-1.53;55.27;95011.50;5011180;28;20950;-60
2024/01/12 01:04:56;;;;;;;25.60;13.07;;;-1.10;87.40;;;-1.56;55.07;95009.06;5011288;28;20481;-63
2024/01/12 01:07:23;;;;;;;21.83;12.57;;;-1.10;86.90;;;-1.57;55.21;95012.53;5011612;28;20445;-62
2024/01/12 01:09:51;;;;;;;25.67;13.20;;;-1.20;86.50;;;-1.61;54.99;95003.25;5011463;28;20833;-63
2024/01/12 01:12:19;;;;;;;27.50;13.60;;;-1.20;86.80;;;-1.61;54.94;95003.25;5013106;28;20476;-64
2024/01/12 01:14:48;;;;;;;22.97;11.87;;;-1.20;87.00;;;-1.59;55.33;94998.88;5011737;28;20449;-63
2024/01/12 01:17:15;;;;;;;19.80;11.80;;;-1.20;87.10;;;-1.56;55.21;95003.06;5011450;28;20456;-62
2024/01/12 01:19:42;;;;;;;18.97;11.47;;;-1.20;87.20;;;-1.55;54.79;95003.00;5011038;28;20450;-62
2024/01/12 01:22:09;;;;;;;19.20;10.77;;;-1.10;86.50;;;-1.53;54.69;94992.63;5011203;28;20457;-62
2024/01/12 01:24:37;;;;;;;24.30;11.70;;;-1.10;86.40;;;-1.50;54.54;94998.50;5011261;28;20826;-62
2024/01/12 01:27:04;;;;;;;19.40;11.47;;;-1.10;86.20;;;-1.49;54.55;94987.28;5010815;28;20520;-61
2024/01/12 01:29:32;;;;;;;20.77;12.13;;;-1.10;85.80;;;-1.48;54.16;94991.53;5011016;28;20457;-62
2024/01/12 01:32:01;;;;;;;19.17;11.50;;;-1.10;85.10;;;-1.51;54.21;94983.91;5010810;28;20449;-62
2024/01/12 01:34:28;;;;;;;17.73;12.03;;;-1.10;84.70;;;-1.54;54.04;94986.63;5008438;28;20844;-63
2024/01/12 01:37:01;;;;;;;21.50;13.17;;;-1.10;84.30;;;-1.56;54.41;94982.44;5010649;28;20481;-62
2024/01/12 01:39:29;;;;;;;20.37;11.53;;;-1.20;84.90;;;-1.59;53.84;94974.84;5010726;28;20489;-62
2024/01/12 01:41:56;;;;;;;21.27;11.93;;;-1.20;84.30;;;-1.63;54.65;94971.53;5010818;28;20466;-63
2024/01/12 01:44:25;;;;;;;20.67;11.43;;;-1.20;84.70;;;-1.64;53.79;94969.88;5010807;28;20561;-61
2024/01/12 01:46:53;;;;;;;19.40;11.80;;;-1.20;84.40;;;-1.67;54.19;94959.69;5010388;28;20485;-63
2024/01/12 01:49:22;;;;;;;24.77;12.20;;;-1.20;85.00;;;-1.68;54.14;94963.97;5010770;28;20466;-63
2024/01/12 01:51:49;;;;;;;23.17;13.00;;;-1.20;85.20;;;-1.71;54.38;94958.13;5010703;28;20493;-62
2024/01/12 01:54:19;;;;;;;23.53;13.00;;;-1.30;85.10;;;-1.73;54.64;94953.03;5010459;28;20527;-64
2024/01/12 01:56:46;;;;;;;19.20;12.43;;;-1.30;85.20;;;-1.75;54.78;94946.25;5010176;28;20469;-63
2024/01/12 01:59:14;;;;;;;21.10;12.07;;;-1.30;85.40;;;-1.76;54.42;94948.00;5010460;28;20829;-63
2024/01/12 02:01:42;;;;;;;18.20;11.37;;;-1.40;85.20;;;-1.78;54.60;94946.38;5010326;28;20482;-62
2024/01/12 02:04:09;;;;;;;19.70;12.20;;;-1.40;85.50;;;-1.79;54.91;94944.72;5010302;28;20480;-63
2024/01/12 02:06:38;;;;;;;24.43;12.23;;;-1.40;85.90;;;-1.79;54.48;94942.16;5010354;28;20479;-63
2024/01/12 02:09:06;;;;;;;20.60;11.40;;;-1.40;85.50;;;-1.77;54.66;94940.31;5010224;28;20453;-62
2024/01/12 02:11:33;;;;;;;23.33;11.23;;;-1.40;85.70;;;-1.75;54.13;94930.78;5010485;28;20473;-62
2024/01/12 02:14:06;;;;;;;21.93;12.07;;;-1.40;84.90;;;-1.73;54.21;94939.31;5009955;28;20461;-63
2024/01/12 02:16:34;;;;;;;20.50;12.10;;;-1.30;85.10;;;-1.73;54.07;94934.16;5009684;28;20560;-62
2024/01/12 02:19:01;;;;;;;20.90;11.10;;;-1.30;84.90;;;-1.73;53.95;94937.56;5009783;28;20923;-63
2024/01/12 02:21:30;;;;;;;23.07;11.70;;;-1.30;84.10;;;-1.75;53.92;94941.94;5009789;28;20482;-62
2024/01/12 02:23:58;;;;;;;20.07;10.30;;;-1.30;84.10;;;-1.73;53.81;94939.31;5009859;28;20465;-63
2024/01/12 02:26:25;;;;;;;23.57;10.73;;;-1.30;84.10;;;-1.75;53.65;94930.78;5009517;28;20476;-62
2024/01/12 02:28:52;;;;;;;19.20;11.07;;;-1.40;83.20;;;-1.79;53.77;94926.69;5009575;28;20834;-61
2024/01/12 02:31:20;;;;;;;16.50;10.20;;;-1.30;83.60;;;-1.76;53.71;94929.13;5009763;28;20477;-61
2024/01/12 02:33:49;;;;;;;24.47;12.40;;;-1.40;83.60;;;-1.79;53.42;94927.50;5009581;28;20457;-63
2024/01/12 02:36:17;;;;;;;21.10;11.77;;;-1.40;83.20;;;-1.85;53.38;94936.31;5009624;28;20565;-62
2024/01/12 02:38:49;;;;;;;16.63;11.30;;;-1.40;83.10;;;-1.90;53.38;94937.44;5009257;28;20500;-62
2024/01/12 02:41:17;;;;;;;18.63;10.60;;;-1.50;83.10;;;-1.98;53.73;94942.91;5009325;28;20473;-64
2024/01/12 02:43:44;;;;;;;28.40;11.73;;;-1.50;83.60;;;-2.00;54.10;94947.25;5011458;28;20450;-63
2024/01/12 02:46:12;;;;;;;25.67;11.07;;;-1.60;83.90;;;-1.98;54.68;94945.47;5009097;28;20477;-62
2024/01/12 02:48:39;;;;;;;22.57;12.90;;;-1.60;85.10;;;-1.95;54.44;94947.94;5009607;28;20467;-64
2024/01/12 02:51:06;;;;;;;23.33;12.00;;;-1.50;85.20;;;-1.91;54.49;94952.03;5008818;28;20489;-64
2024/01/12 02:53:33;;;;;;;21.07;11.67;;;-1.50;85.30;;;-1.87;54.59;94961.34;5009270;28;20772;-64
2024/01/12 02:56:02;;;;;;;19.63;11.70;;;-1.50;85.20;;;-1.87;54.21;94953.59;5008958;28;21035;-61
2024/01/12 02:58:29;;;;;;;21.43;12.03;;;-1.50;84.30;;;-1.85;53.82;94946.63;5009264;28;20501;-62
2024/01/12 03:00:57;;;;;;;19.00;11.77;;;-1.50;83.90;;;-1.86;53.66;94937.25;5009288;28;20508;-64
2024/01/12 03:03:24;;;;;;;17.80;10.33;;;-1.40;84.00;;;-1.87;53.43;94953.59;5008844;28;20515;-63
2024/01/12 03:05:51;;;;;;;22.70;11.17;;;-1.40;83.80;;;-1.89;54.14;94944.25;5009153;28;20577;-61
2024/01/12 03:08:18;;;;;;;22.13;11.83;;;-1.40;84.00;;;-1.84;53.99;94950.91;5009286;28;20465;-62
2024/01/12 03:10:46;;;;;;;22.07;11.60;;;-1.40;84.00;;;-1.82;53.94;94946.50;5009475;28;20477;-63
2024/01/12 03:13:14;;;;;;;19.27;12.10;;;-1.40;84.00;;;-1.81;53.85;94942.22;5009376;28;20457;-63
2024/01/12 03:15:42;;;;;;;21.90;10.87;;;-1.40;84.00;;;-1.75;53.85;94935.94;5009745;28;20576;-62
2024/01/12 03:18:09;;;;;;;19.80;10.77;;;-1.40;84.00;;;-1.70;54.16;94944.34;5009651;28;20504;-60
2024/01/12 03:20:36;;;;;;;21.73;11.40;;;-1.30;84.50;;;-1.68;54.08;94938.19;5015266;28;20831;-63
2024/01/12 03:23:04;;;;;;;17.53;11.00;;;-1.30;84.40;;;-1.63;53.93;94940.59;5013307;28;20456;-64
2024/01/12 03:25:31;;;;;;;20.47;11.70;;;-1.20;84.40;;;-1.60;54.00;94935.28;5008646;28;20477;-63
2024/01/12 03:27:59;;;;;;;21.77;12.93;;;-1.20;84.30;;;-1.54;53.85;94940.19;5009270;28;20881;-63
2024/01/12 03:30:28;;;;;;;19.90;10.70;;;-1.20;84.20;;;-1.53;53.90;94936.72;5008962;28;20496;-64
2024/01/12 03:32:56;;;;;;;20.20;10.90;;;-1.10;84.10;;;-1.54;53.54;94937.59;5005595;28;20461;-64
2024/01/12 03:35:23;;;;;;;17.70;11.20;;;-1.10;82.90;;;-1.53;53.60;94941.06;5009562;28;20557;-64
2024/01/12 03:37:50;;;;;;;20.53;12.13;;;-1.10;83.40;;;-1.52;53.01;94935.81;5009160;28;20466;-62
2024/01/12 03:40:18;;;;;;;19.20;10.60;;;-1.10;82.30;;;-1.55;53.00;94937.69;5009165;28;20493;-62
2024/01/12 03:42:45;;;;;;;19.80;11.20;;;-1.10;82.30;;;-1.57;53.38;94932.59;5009257;28;20462;-62
2024/01/12 03:45:13;;;;;;;17.90;11.30;;;-1.20;82.70;;;-1.56;53.73;94939.44;5009183;28;20599;-63
2024/01/12 03:47:43;;;;;;;17.57;10.53;;;-1.10;83.30;;;-1.53;53.56;94934.13;5007399;28;20865;-62
2024/01/12 03:50:11;;;;;;;18.90;10.77;;;-1.10;83.60;;;-1.53;53.15;94936.72;5008460;28;20469;-63
2024/01/12 03:52:38;;;;;;;20.67;11.83;;;-1.10;82.50;;;-1.51;53.54;94941.81;5009396;28;20441;-62
2024/01/12 03:55:06;;;;;;;17.77;10.13;;;-1.10;82.70;;;-1.52;52.78;94937.53;5009033;28;20474;-61
2024/01/12 03:57:33;;;;;;;20.07;12.33;;;-1.10;82.50;;;-1.51;53.34;94931.50;5004695;28;20939;-61
2024/01/12 04:00:00;;;;;;;20.47;11.53;;;-1.10;82.30;;;-1.52;53.00;94925.50;5008529;28;20508;-63
2024/01/12 04:02:28;;;;;;;19.03;11.87;;;-1.10;82.40;;;-1.54;53.33;94926.47;5006373;28;20962;-63
2024/01/12 04:04:56;;;;;;;20.30;12.20;;;-1.10;82.70;;;-1.59;53.37;94918.09;5012375;28;20473;-64
2024/01/12 04:07:24;;;;;;;23.30;11.93;;;-1.20;82.90;;;-1.62;53.87;94916.47;5012340;28;20454;-63
2024/01/12 04:09:51;;;;;;;21.97;13.20;;;-1.20;83.40;;;-1.66;53.86;94936.41;5012757;28;20852;-62
2024/01/12 04:12:18;;;;;;;25.67;14.00;;;-1.20;83.70;;;-1.69;53.77;94926.22;5008209;28;20806;-63
2024/01/12 04:14:46;;;;;;;22.50;13.97;;;-1.20;84.10;;;-1.72;54.18;94926.34;5010652;28;20449;-62
2024/01/12 04:17:13;;;;;;;24.47;13.27;;;-1.30;84.40;;;-1.75;54.16;94923.91;5011915;28;20457;-64
2024/01/12 04:19:41;;;;;;;23.60;13.10;;;-1.30;84.30;;;-1.74;54.47;94922.16;5010359;28;20493;-64
2024/01/12 04:22:09;;;;;;;19.47;11.37;;;-1.30;84.70;;;-1.72;54.03;94931.50;5009452;28;20445;-65
2024/01/12 04:24:37;;;;;;;21.10;11.50;;;-1.30;84.20;;;-1.69;54.12;94933.09;5012285;28;20500;-62
2024/01/12 04:27:05;;;;;;;21.37;12.10;;;-1.30;84.10;;;-1.65;54.19;94935.47;5012350;28;20457;-62
2024/01/12 04:29:32;;;;;;;21.80;11.80;;;-1.20;84.20;;;-1.63;54.22;94930.25;5012391;28;20491;-64
2024/01/12 04:31:59;;;;;;;22.43;12.37;;;-1.20;84.40;;;-1.53;54.11;94931.56;5012002;28;20464;-62
2024/01/12 04:34:27;;;;;;;20.63;12.80;;;-1.20;84.70;;;-1.45;54.10;94941.56;5011695;28;20454;-62
2024/01/12 04:36:55;;;;;;;23.77;13.10;;;-1.10;84.70;;;-1.38;53.83;94936.97;5008299;28;20504;-63
2024/01/12 04:39:24;;;;;;;28.80;13.70;;;-1.00;85.10;;;-1.38;53.80;94936.97;5007259;28;20490;-63
2024/01/12 04:41:51;;;;;;;26.97;13.80;;;-1.00;84.40;;;-1.34;54.36;94939.34;5011925;28;20570;-62
2024/01/12 04:44:19;;;;;;;25.00;13.27;;;-1.00;85.10;;;-1.31;53.95;94944.38;5012099;28;20930;-63
2024/01/12 04:46:46;;;;;;;26.27;14.70;;;-0.90;85.10;;;-1.27;54.10;94937.31;5012032;28;20473;-61
2024/01/12 04:49:14;;;;;;;32.63;13.83;;;-0.90;85.10;;;-1.24;54.12;94937.19;5007732;28;20477;-62
2024/01/12 04:51:41;;;;;;;30.13;15.40;;;-0.90;84.90;;;-1.23;54.09;94933.72;5011481;28;20478;-62
2024/01/12 04:54:08;;;;;;;23.67;14.07;;;-0.90;84.80;;;-1.24;53.95;94931.19;5010892;28;20461;-64
2024/01/12 04:56:37;;;;;;;30.23;15.33;;;-0.90;84.50;;;-1.26;54.07;94933.84;5008842;28;20548;-64
2024/01/12 04:59:05;;;;;;;23.53;14.57;;;-0.90;84.50;;;-1.27;54.27;94933.03;5008501;28;20485;-63
2024/01/12 05:01:32;;;;;;;28.90;14.00;;;-0.90;84.50;;;-1.27;54.08;94942.47;5009230;28;20467;-63
2024/01/12 05:04:00;;;;;;;27.73;13.73;;;-0.90;84.50;;;-1.31;54.14;94951.28;5011646;28;20957;-74
2024/01/12 05:06:28;;;;;;;27.93;14.50;;;-0.90;84.50;;;-1.31;54.13;94956.44;5012189;28;20480;-71
2024/01/12 05:08:55;;;;;;;31.40;14.10;;;-0.90;84.50;;;-1.32;54.22;94955.59;5011607;28;20481;-61
2024/01/12 05:11:25;;;;;;;29.20;14.57;;;-0.90;85.60;;;-1.31;54.17;94956.44;5011695;28;20496;-63
2024/01/12 05:13:54;;;;;;;34.03;14.73;;;-0.90;85.00;;;-1.35;54.02;94948.00;5010656;28;20536;-61
2024/01/12 05:16:22;;;;;;;32.10;15.70;;;-0.90;85.20;;;-1.32;53.89;94960.78;5011504;28;20478;-61
2024/01/12 05:18:49;;;;;;;27.70;13.87;;;-0.90;84.80;;;-1.34;53.88;94951.41;5011147;28;20489;-61
2024/01/12 05:21:16;;;;;;;23.97;13.53;;;-0.90;84.50;;;-1.34;54.06;94964.31;5009957;28;20476;-60
2024/01/12 05:23:44;;;;;;;27.97;15.03;;;-1.00;84.40;;;-1.33;54.30;94963.41;5011727;28;20523;-61
2024/01/12 05:26:13;;;;;;;24.57;12.77;;;-1.00;85.10;;;-1.35;54.08;94980.69;5010482;28;20470;-59
2024/01/12 05:28:40;;;;;;;31.17;14.53;;;-1.00;84.40;;;-1.35;54.02;94978.09;5009716;28;20969;-64
2024/01/12 05:31:11;;;;;;;26.67;13.73;;;-1.00;84.40;;;-1.41;53.63;94974.06;5011012;28;20477;-60
2024/01/12 05:33:38;;;;;;;26.07;13.17;;;-1.00;83.70;;;-1.39;53.42;94985.16;5009844;28;20532;-61
2024/01/12 05:36:07;;;;;;;24.70;12.70;;;-1.00;83.50;;;-1.43;53.81;94982.75;5010552;28;20466;-60
2024/01/12 05:38:35;;;;;;;25.90;13.87;;;-1.00;82.90;;;-1.51;53.30;94991.66;5006700;28;20455;-60
2024/01/12 05:41:02;;;;;;;24.07;12.63;;;-1.10;82.50;;;-1.57;53.19;95007.38;5009171;28;20528;-60
2024/01/12 05:43:29;;;;;;;28.70;14.13;;;-1.10;82.30;;;-1.62;53.27;94999.81;5009198;28;20446;-60
2024/01/12 05:45:57;;;;;;;24.90;14.13;;;-1.20;82.70;;;-1.67;54.15;94996.59;5010830;28;20473;-60
2024/01/12 05:48:25;;;;;;;30.33;15.53;;;-1.20;83.00;;;-1.67;53.55;94990.63;5010598;28;20453;-60
2024/01/12 05:50:53;;;;;;;30.33;15.60;;;-1.20;83.50;;;-1.68;53.91;94984.59;5005240;28;20561;-60
2024/01/12 05:53:25;;;;;;;29.07;14.37;;;-1.30;83.60;;;-1.69;53.68;94992.41;5010139;28;20464;-61
2024/01/12 05:55:52;;;;;;;26.07;13.27;;;-1.30;83.70;;;-1.71;53.83;94983.91;5010478;28;20531;-60
2024/01/12 05:58:20;;;;;;;22.67;12.57;;;-1.30;83.60;;;-1.73;53.58;94989.13;5010106;28;20454;-60
2024/01/12 06:00:48;;;;;;;24.40;13.40;;;-1.30;83.40;;;-1.75;53.48;94978.03;5003562;28;20502;-61
2024/01/12 06:03:15;;;;;;;24.63;13.33;;;-1.30;83.10;;;-1.76;53.69;94975.53;5008104;28;21020;-61
2024/01/12 06:05:45;;;;;;;25.83;12.67;;;-1.30;83.20;;;-1.77;53.44;94979.81;5010349;28;20474;-62
2024/01/12 06:08:13;;;;;;;27.30;13.33;;;-1.40;82.70;;;-1.80;52.91;94974.78;5010304;28;20449;-60
2024/01/12 06:10:40;;;;;;;22.37;13.50;;;-1.40;82.10;;;-1.85;52.91;94993.03;5010551;28;20996;-61
2024/01/12 06:13:08;;;;;;;34.83;13.53;;;-1.40;81.80;;;-1.87;53.14;94981.94;5010463;28;20966;-61
2024/01/12 06:15:35;;;;;;;27.80;13.47;;;-1.40;82.20;;;-1.87;53.62;94983.69;5006101;28;20492;-61
2024/01/12 06:18:02;;;;;;;30.03;12.83;;;-1.40;82.30;;;-1.87;53.27;94973.38;5009835;28;20481;-61
2024/01/12 06:20:30;;;;;;;29.53;13.70;;;-1.50;81.70;;;-1.89;52.58;94976.03;5003611;28;21027;-60
2024/01/12 06:22:59;;;;;;;24.40;12.83;;;-1.50;80.90;;;-1.86;53.46;94981.06;5006791;28;20460;-60
2024/01/12 06:25:29;;;;;;;27.63;15.30;;;-1.50;82.00;;;-1.63;53.13;94981.84;5007440;28;20544;-60
2024/01/12 06:27:56;;;;;;;34.43;15.30;;;-1.30;82.80;;;-1.22;53.10;94991.31;5009946;28;20568;-61
2024/01/12 06:30:23;;;;;;;26.33;13.10;;;-0.90;83.20;;;-0.73;52.41;94987.44;5009681;28;20536;-60
2024/01/12 06:32:51;;;;;;;28.80;13.70;;;-0.40;82.90;;;-0.20;52.29;94992.78;5009226;28;20457;-61
2024/01/12 06:35:18;;;;;;;24.17;13.00;;;0.20;81.90;;;0.33;50.32;95001.47;5010584;28;20469;-60
2024/01/12 06:37:45;;;;;;;20.00;11.70;;;0.60;79.90;;;0.83;50.05;95002.47;5009898;28;20838;-60
2024/01/12 06:40:14;;;;;;;25.60;11.70;;;1.10;79.70;;;1.34;48.85;95003.28;5008064;28;20493;-60
2024/01/12 06:42:42;;;;;;;20.60;11.10;;;1.70;76.90;;;1.84;48.89;95008.41;5007521;28;20469;-60
2024/01/12 06:45:11;;;;;;;21.80;12.27;;;2.20;76.20;;;2.33;47.34;95016.09;5009850;28;20481;-59
2024/01/12 06:47:39;;;;;;;25.17;13.57;;;2.80;72.70;;;2.85;46.53;95012.25;5010123;28;20500;-60
2024/01/12 06:50:07;;;;;;;23.40;12.13;;;3.30;72.20;;;3.37;46.09;95013.53;5005965;28;20493;-60
2024/01/12 06:52:35;;;;;;;17.33;11.53;;;3.80;70.60;;;3.81;43.92;95015.19;5009849;28;20453;-60
2024/01/12 06:55:02;;;;;;;23.00;12.77;;;4.30;67.50;;;4.11;44.39;95022.81;5004568;28;20474;-60
2024/01/12 06:57:31;;;;;;;19.90;12.17;;;4.50;66.70;;;4.13;43.22;95017.53;5009409;28;20453;-60
2024/01/12 06:59:58;;;;;;;18.37;10.97;;;4.60;64.80;;;3.93;43.28;95016.16;5009613;28;20501;-61
2024/01/12 07:02:25;;;;;;;23.00;12.77;;;4.40;63.30;;;3.79;43.78;95022.22;5007301;28;21045;-61
2024/01/12 07:04:53;;;;;;;24.47;13.03;;;4.30;65.10;;;3.80;44.25;95029.13;5007042;28;22173;-59
2024/01/12 07:07:20;;;;;;;24.10;12.77;;;4.20;65.60;;;3.99;43.64;95025.38;5009625;28;20448;-61
2024/01/12 07:09:47;;;;;;;27.13;12.63;;;4.40;64.80;;;4.34;43.16;95036.16;5009901;28;20465;-60
2024/01/12 07:12:15;;;;;;;30.17;15.30;;;4.80;63.60;;;4.76;43.38;95034.31;5009821;28;20464;-60
2024/01/12 07:14:43;;;;;;;28.90;13.53;;;5.30;64.40;;;5.27;43.84;95041.38;5009710;28;20454;-59
2024/01/12 07:17:11;;;;;;;22.97;13.30;;;5.80;65.20;;;5.89;45.63;95031.97;5009811;28;20457;-60
2024/01/12 07:19:38;;;;;;;22.43;12.70;;;6.40;70.10;;;6.46;42.63;95036.63;5007491;28;20489;-60
2024/01/12 07:22:06;;;;;;;26.73;13.17;;;7.00;64.60;;;6.87;37.44;95033.72;5009831;28;20822;-59
2024/01/12 07:24:33;;;;;;;31.00;13.27;;;7.40;56.10;;;7.13;40.06;95030.00;5009748;28;20461;-60
2024/01/12 07:27:00;;;;;;;21.60;12.50;;;7.80;58.40;;;7.43;39.50;95039.09;5009397;28;20462;-60
2024/01/12 07:29:27;;;;;;;27.47;14.10;;;8.10;56.40;;;7.66;38.69;95039.13;5008948;28;20984;-61
2024/01/12 07:31:58;;;;;;;27.00;13.10;;;8.40;56.60;;;7.97;39.34;95034.97;5008759;28;20481;-60
2024/01/12 07:34:25;;;;;;;27.63;14.87;;;8.70;56.70;;;8.19;38.80;95036.72;5005081;28;20445;-61
2024/01/12 07:36:52;;;;;;;25.63;13.83;;;8.90;56.20;;;8.55;38.46;95034.81;5006984;28;20476;-60
2024/01/12 07:39:20;;;;;;;23.10;13.37;;;9.20;55.90;;;8.90;36.74;95038.13;5013400;28;20492;-60
2024/01/12 07:41:47;;;;;;;25.90;13.67;;;9.60;54.00;;;9.22;36.33;95035.50;5009106;28;20973;-61
2024/01/12 07:44:15;;;;;;;25.53;14.07;;;9.90;53.10;;;9.19;35.73;95043.63;5009715;28;21179;-60
2024/01/12 07:46:42;;;;;;;26.50;13.73;;;9.90;51.50;;;8.86;36.67;95045.44;5013345;28;20473;-60
2024/01/12 07:49:11;;;;;;;26.57;13.90;;;9.60;52.30;;;8.57;36.74;95053.84;5008979;28;20503;-60
2024/01/12 07:51:38;;;;;;;28.50;14.47;;;9.20;52.00;;;8.39;34.96;95050.03;5008359;28;20485;-61
2024/01/12 07:54:06;;;;;;;34.77;15.43;;;8.90;50.50;;;7.94;36.26;95056.16;5009046;28;20537;-61
2024/01/12 07:56:34;;;;;;;37.10;14.30;;;8.40;50.90;;;7.40;36.85;95062.88;5011515;28;20469;-61
2024/01/12 07:59:01;;;;;;;26.00;14.93;;;7.90;51.60;;;7.01;38.01;95075.38;5012534;28;20449;-60
2024/01/12 08:01:28;;;;;;;31.90;15.70;;;7.50;53.00;;;6.78;38.01;95062.19;5008927;28;20500;-61
2024/01/12 08:03:55;;;;;;;32.57;14.70;;;7.10;53.10;;;6.68;38.40;95069.06;5011405;28;20449;-61
2024/01/12 08:06:24;;;;;;;23.87;13.67;;;7.00;54.30;;;6.74;38.54;95066.00;5010190;28;20476;-60
2024/01/12 08:08:51;;;;;;;26.23;13.37;;;6.90;54.80;;;6.74;38.75;95063.38;5009307;28;20449;-60
2024/01/12 08:11:19;;;;;;;37.50;15.27;;;6.90;54.80;;;6.93;38.70;95069.88;5011412;28;20473;-60
2024/01/12 08:13:46;;;;;;;37.00;16.23;;;7.00;55.60;;;7.21;38.23;95078.31;5012520;28;20460;-61
2024/01/12 08:16:13;;;;;;;29.53;16.00;;;7.20;55.10;;;7.39;37.62;95065.59;5011847;28;20465;-60
2024/01/12 08:18:41;;;;;;;28.27;16.47;;;7.30;54.60;;;7.42;37.10;95086.31;5011962;28;20461;-60
2024/01/12 08:21:08;;;;;;;31.30;14.97;;;7.40;52.50;;;7.14;36.99;95078.75;5011578;28;20497;-60
2024/01/12 08:23:37;;;;;;;30.00;15.20;;;7.20;52.90;;;6.96;37.89;95086.16;5008694;28;20457;-60
2024/01/12 08:26:05;;;;;;;36.93;17.57;;;7.10;54.10;;;7.02;37.72;95097.97;5011285;28;20469;-59
2024/01/12 08:28:32;;;;;;;28.97;15.10;;;7.10;54.40;;;7.08;37.91;95097.53;5011151;28;20531;-59
2024/01/12 08:30:59;;;;;;;34.00;16.40;;;7.10;54.10;;;6.87;37.90;95114.78;5009863;28;20469;-59
2024/01/12 08:33:27;;;;;;;28.57;16.50;;;7.00;54.30;;;6.58;38.36;95112.47;5011348;28;20551;-59
2024/01/12 08:35:54;;;;;;;23.80;14.50;;;6.80;53.70;;;6.49;37.84;95118.34;5011747;28;20481;-59
2024/01/12 08:38:21;;;;;;;27.37;15.57;;;6.60;54.30;;;6.52;38.93;95120.75;5011764;28;20454;-60
2024/01/12 08:40:50;;;;;;;28.73;15.90;;;6.60;55.20;;;6.50;37.65;95126.06;5011789;28;20497;-59
2024/01/12 08:43:19;;;;;;;32.27;15.20;;;6.60;54.50;;;6.57;39.00;95122.09;5011857;28;20799;-59
2024/01/12 08:45:46;;;;;;;32.17;16.53;;;6.60;55.30;;;6.75;37.27;95119.09;5012020;28;20476;-60
2024/01/12 08:48:13;;;;;;;30.33;16.00;;;6.70;54.30;;;6.79;37.38;95116.16;5009946;28;20452;-60
2024/01/12 08:50:41;;;;;;;36.27;18.23;;;6.70;53.60;;;6.71;37.32;95125.47;5011379;28;20544;-60
2024/01/12 08:53:09;;;;;;;35.90;16.57;;;6.70;54.20;;;6.48;37.69;95127.97;5011860;28;20457;-61
2024/01/12 08:55:36;;;;;;;31.07;16.20;;;6.50;53.60;;;6.21;38.38;95122.91;5011426;28;20507;-60
2024/01/12 08:58:05;;;;;;;30.87;16.40;;;6.30;54.70;;;6.13;39.24;95127.81;5011669;28;20442;-60
2024/01/12 09:00:33;;;;;;;32.10;17.20;;;6.20;55.40;;;6.30;39.11;95130.09;5011722;28;20559;-59
2024/01/12 09:03:00;;;;;;;33.87;16.70;;;6.20;55.90;;;6.56;38.87;95135.28;5011042;28;20900;-60
2024/01/12 09:05:27;;;;;;;31.53;16.57;;;6.40;55.10;;;6.75;37.91;95135.59;5011165;28;20552;-60
2024/01/12 09:07:54;;;;;;;29.77;16.10;;;6.60;54.90;;;6.86;38.27;95132.22;5011727;28;20450;-60
2024/01/12 09:10:22;;;;;;;32.30;16.90;;;6.80;55.40;;;6.98;38.37;95133.94;5011737;28;20482;-60
2024/01/12 09:12:49;;;;;;;31.03;17.70;;;6.90;55.30;;;7.11;38.28;95135.66;5011060;28;20461;-61
2024/01/12 09:15:18;;;;;;;28.73;16.13;;;7.00;54.80;;;7.06;38.35;95143.03;5011350;28;20508;-61
2024/01/12 09:17:45;;;;;;;34.73;17.77;;;7.00;54.50;;;6.94;38.38;95140.38;5011479;28;20446;-60
2024/01/12 09:20:13;;;;;;;30.60;16.07;;;7.00;55.00;;;6.91;38.60;95135.34;5011014;28;20551;-60
2024/01/12 09:22:41;;;;;;;31.13;16.10;;;6.90;54.50;;;7.08;38.83;95138.50;5011198;28;21033;-60
2024/01/12 09:25:09;;;;;;;35.53;17.47;;;7.00;55.60;;;7.25;38.49;95138.13;5011202;28;20474;-62
2024/01/12 09:27:36;;;;;;;32.60;18.20;;;7.10;55.60;;;7.46;39.01;95133.06;5008397;28;20514;-61
2024/01/12 09:30:04;;;;;;;32.37;17.47;;;7.30;55.60;;;7.71;37.33;95129.47;5009424;28;20473;-61
2024/01/12 09:32:33;;;;;;;30.70;17.93;;;7.50;54.60;;;7.97;36.95;95117.97;5009630;28;20476;-61
2024/01/12 09:35:01;;;;;;;35.57;17.37;;;7.70;53.40;;;8.04;36.18;95119.13;5010213;28;20466;-60
2024/01/12 09:37:28;;;;;;;34.60;18.00;;;7.80;53.00;;;7.98;36.59;95112.59;5007721;28;20465;-61
2024/01/12 09:39:55;;;;;;;33.00;16.80;;;7.90;53.60;;;8.09;36.76;95109.16;5010645;28;20482;-61
2024/01/12 09:42:23;;;;;;;28.60;16.77;;;7.90;52.90;;;8.26;36.63;95111.28;5008783;28;20509;-61
2024/01/12 09:44:51;;;;;;;34.80;17.30;;;8.10;53.20;;;8.49;35.91;95115.69;5008584;28;20450;-60
2024/01/12 09:47:18;;;;;;;27.70;16.80;;;8.30;52.60;;;8.61;37.00;95117.34;5008861;28;20454;-60
2024/01/12 09:49:47;;;;;;;39.37;17.73;;;8.40;53.80;;;8.67;36.57;95113.44;5009687;28;20772;-60
2024/01/12 09:52:14;;;;;;;29.90;16.30;;;8.40;53.60;;;8.68;36.05;95109.84;5010197;28;20469;-60
2024/01/12 09:54:41;;;;;;;37.17;19.63;;;8.50;52.40;;;8.55;35.55;95108.22;5010456;28;20458;-61
2024/01/12 09:57:10;;;;;;;30.73;17.80;;;8.40;51.50;;;8.48;36.19;95120.13;5011204;28;20449;-61
2024/01/12 09:59:38;;;;;;;30.03;16.30;;;8.40;52.70;;;8.52;35.54;95118.94;5010052;28;20476;-61
2024/01/12 10:02:06;;;;;;;38.63;18.93;;;8.30;51.80;;;8.71;36.52;95120.91;5009887;28;20529;-60
2024/01/12 10:04:33;;;;;;;37.50;19.57;;;8.40;52.90;;;8.99;36.53;95110.84;5010505;28;20456;-61
2024/01/12 10:07:02;;;;;;;34.60;18.50;;;8.70;53.60;;;9.18;34.64;95120.66;5007463;28;20458;-60
2024/01/12 10:09:29;;;;;;;34.07;16.80;;;8.80;51.20;;;9.37;34.65;95116.53;5006517;28;20446;-61
2024/01/12 10:11:57;;;;;;;37.97;17.80;;;9.00;52.00;;;9.45;34.32;95116.72;5008887;28;21009;-61